sensor_id;sensor_type;location;lat;lon;timestamp;P1;durP1;ratioP1;P2;durP2;ratioP2
23617;SDS011;18207;32.078;34.818;2023-07-13T00:00:14;0.63;;;0.63;;
23617;SDS011;18207;32.078;34.818;2023-07-13T00:02:45;0.93;;;0.93;;
23617;SDS011;18207;32.078;34.818;2023-07-13T00:05:15;0.60;;;0.60;;
23617;SDS011;18207;32.078;34.818;2023-07-13T00:07:48;0.70;;;0.70;;
23617;SDS011;18207;32.078;34.818;2023-07-13T00:10:21;0.80;;;0.80;;
23617;SDS011;18207;32.078;34.818;2023-07-13T00:12:53;0.77;;;0.60;;
23617;SDS011;18207;32.078;34.818;2023-07-13T00:15:24;0.55;;;0.55;;
23617;SDS011;18207;32.078;34.818;2023-07-13T00:17:57;0.90;;;0.75;;
23617;SDS011;18207;32.078;34.818;2023-07-13T00:20:28;0.60;;;0.60;;
23617;SDS011;18207;32.078;34.818;2023-07-13T00:22:59;0.70;;;0.70;;
23617;SDS011;18207;32.078;34.818;2023-07-13T00:25:29;0.60;;;0.60;;
23617;SDS011;18207;32.078;34.818;2023-07-13T00:28:00;0.65;;;0.65;;
23617;SDS011;18207;32.078;34.818;2023-07-13T00:30:30;0.50;;;0.50;;
23617;SDS011;18207;32.078;34.818;2023-07-13T00:33:01;0.63;;;0.63;;
23617;SDS011;18207;32.078;34.818;2023-07-13T00:35:43;0.77;;;0.77;;
23617;SDS011;18207;32.078;34.818;2023-07-13T00:38:15;0.70;;;0.70;;
23617;SDS011;18207;32.078;34.818;2023-07-13T00:40:47;1.40;;;0.70;;
23617;SDS011;18207;32.078;34.818;2023-07-13T00:43:18;0.82;;;0.80;;
23617;SDS011;18207;32.078;34.818;2023-07-13T00:48:46;0.65;;;0.65;;
23617;SDS011;18207;32.078;34.818;2023-07-13T00:51:20;0.60;;;0.60;;
23617;SDS011;18207;32.078;34.818;2023-07-13T00:53:59;0.70;;;0.60;;
23617;SDS011;18207;32.078;34.818;2023-07-13T00:56:39;0.65;;;0.65;;
23617;SDS011;18207;32.078;34.818;2023-07-13T00:59:13;0.80;;;0.80;;
23617;SDS011;18207;32.078;34.818;2023-07-13T01:01:47;0.40;;;0.40;;
23617;SDS011;18207;32.078;34.818;2023-07-13T01:04:18;0.70;;;0.70;;
23617;SDS011;18207;32.078;34.818;2023-07-13T01:06:48;0.70;;;0.70;;
23617;SDS011;18207;32.078;34.818;2023-07-13T01:09:21;0.60;;;0.60;;
23617;SDS011;18207;32.078;34.818;2023-07-13T01:11:53;0.68;;;0.68;;
23617;SDS011;18207;32.078;34.818;2023-07-13T01:14:23;0.70;;;0.70;;
23617;SDS011;18207;32.078;34.818;2023-07-13T01:16:54;0.70;;;0.70;;
23617;SDS011;18207;32.078;34.818;2023-07-13T01:19:29;0.68;;;0.68;;
23617;SDS011;18207;32.078;34.818;2023-07-13T01:22:11;0.80;;;0.70;;
23617;SDS011;18207;32.078;34.818;2023-07-13T01:24:46;0.60;;;0.60;;
23617;SDS011;18207;32.078;34.818;2023-07-13T01:27:17;0.65;;;0.65;;
23617;SDS011;18207;32.078;34.818;2023-07-13T01:29:52;0.82;;;0.82;;
23617;SDS011;18207;32.078;34.818;2023-07-13T01:32:29;1.75;;;1.17;;
23617;SDS011;18207;32.078;34.818;2023-07-13T01:35:01;1.00;;;1.00;;
23617;SDS011;18207;32.078;34.818;2023-07-13T01:37:34;0.93;;;0.88;;
23617;SDS011;18207;32.078;34.818;2023-07-13T01:40:05;0.90;;;0.90;;
23617;SDS011;18207;32.078;34.818;2023-07-13T01:42:36;1.20;;;1.10;;
23617;SDS011;18207;32.078;34.818;2023-07-13T01:45:16;1.33;;;1.23;;
23617;SDS011;18207;32.078;34.818;2023-07-13T01:47:46;2.83;;;1.30;;
23617;SDS011;18207;32.078;34.818;2023-07-13T01:50:17;1.20;;;1.17;;
23617;SDS011;18207;32.078;34.818;2023-07-13T01:52:51;1.05;;;0.95;;
23617;SDS011;18207;32.078;34.818;2023-07-13T01:55:21;1.15;;;1.05;;
23617;SDS011;18207;32.078;34.818;2023-07-13T01:57:52;1.17;;;1.00;;
23617;SDS011;18207;32.078;34.818;2023-07-13T02:00:22;1.27;;;1.17;;
23617;SDS011;18207;32.078;34.818;2023-07-13T02:02:53;1.20;;;1.10;;
23617;SDS011;18207;32.078;34.818;2023-07-13T02:05:23;1.20;;;1.10;;
23617;SDS011;18207;32.078;34.818;2023-07-13T02:07:56;1.25;;;1.15;;
23617;SDS011;18207;32.078;34.818;2023-07-13T02:10:26;1.20;;;1.10;;
23617;SDS011;18207;32.078;34.818;2023-07-13T02:12:57;0.90;;;0.90;;
23617;SDS011;18207;32.078;34.818;2023-07-13T02:15:27;1.15;;;1.05;;
23617;SDS011;18207;32.078;34.818;2023-07-13T02:18:06;1.35;;;1.25;;
23617;SDS011;18207;32.078;34.818;2023-07-13T02:20:36;1.30;;;1.20;;
23617;SDS011;18207;32.078;34.818;2023-07-13T02:23:08;1.50;;;1.40;;
23617;SDS011;18207;32.078;34.818;2023-07-13T02:25:38;1.15;;;1.13;;
23617;SDS011;18207;32.078;34.818;2023-07-13T02:28:08;1.17;;;1.00;;
23617;SDS011;18207;32.078;34.818;2023-07-13T02:30:39;1.92;;;0.90;;
23617;SDS011;18207;32.078;34.818;2023-07-13T02:33:09;1.48;;;1.27;;
23617;SDS011;18207;32.078;34.818;2023-07-13T02:35:39;1.20;;;1.10;;
23617;SDS011;18207;32.078;34.818;2023-07-13T02:38:11;0.80;;;0.80;;
23617;SDS011;18207;32.078;34.818;2023-07-13T02:40:41;1.00;;;1.00;;
23617;SDS011;18207;32.078;34.818;2023-07-13T02:43:11;1.40;;;1.13;;
23617;SDS011;18207;32.078;34.818;2023-07-13T02:45:43;1.30;;;1.20;;
23617;SDS011;18207;32.078;34.818;2023-07-13T02:48:13;2.75;;;1.15;;
23617;SDS011;18207;32.078;34.818;2023-07-13T02:50:43;1.00;;;1.00;;
23617;SDS011;18207;32.078;34.818;2023-07-13T02:53:16;1.52;;;1.05;;
23617;SDS011;18207;32.078;34.818;2023-07-13T02:55:46;1.02;;;1.02;;
23617;SDS011;18207;32.078;34.818;2023-07-13T02:58:16;1.30;;;1.20;;
23617;SDS011;18207;32.078;34.818;2023-07-13T03:00:47;0.80;;;0.80;;
23617;SDS011;18207;32.078;34.818;2023-07-13T03:03:17;1.17;;;1.08;;
23617;SDS011;18207;32.078;34.818;2023-07-13T03:05:47;1.25;;;1.15;;
23617;SDS011;18207;32.078;34.818;2023-07-13T03:08:30;2.10;;;1.40;;
23617;SDS011;18207;32.078;34.818;2023-07-13T03:11:01;1.60;;;1.50;;
23617;SDS011;18207;32.078;34.818;2023-07-13T03:13:34;1.50;;;1.40;;
23617;SDS011;18207;32.078;34.818;2023-07-13T03:16:04;2.15;;;1.90;;
23617;SDS011;18207;32.078;34.818;2023-07-13T03:18:35;1.77;;;1.67;;
23617;SDS011;18207;32.078;34.818;2023-07-13T03:21:07;1.90;;;1.58;;
23617;SDS011;18207;32.078;34.818;2023-07-13T03:23:39;1.90;;;1.75;;
23617;SDS011;18207;32.078;34.818;2023-07-13T03:26:10;2.00;;;1.80;;
23617;SDS011;18207;32.078;34.818;2023-07-13T03:28:44;2.95;;;1.95;;
23617;SDS011;18207;32.078;34.818;2023-07-13T03:31:15;2.10;;;1.90;;
23617;SDS011;18207;32.078;34.818;2023-07-13T03:33:48;2.45;;;2.00;;
23617;SDS011;18207;32.078;34.818;2023-07-13T03:36:20;2.42;;;2.10;;
23617;SDS011;18207;32.078;34.818;2023-07-13T03:38:55;2.38;;;2.17;;
23617;SDS011;18207;32.078;34.818;2023-07-13T03:41:29;2.67;;;2.15;;
23617;SDS011;18207;32.078;34.818;2023-07-13T03:43:59;2.13;;;1.88;;
23617;SDS011;18207;32.078;34.818;2023-07-13T03:46:29;2.47;;;2.17;;
23617;SDS011;18207;32.078;34.818;2023-07-13T03:49:01;2.17;;;1.95;;
23617;SDS011;18207;32.078;34.818;2023-07-13T03:51:33;2.20;;;2.00;;
23617;SDS011;18207;32.078;34.818;2023-07-13T03:54:05;2.30;;;2.10;;
23617;SDS011;18207;32.078;34.818;2023-07-13T03:56:35;2.30;;;2.10;;
23617;SDS011;18207;32.078;34.818;2023-07-13T03:59:05;2.08;;;1.83;;
23617;SDS011;18207;32.078;34.818;2023-07-13T04:01:35;2.13;;;1.92;;
23617;SDS011;18207;32.078;34.818;2023-07-13T04:04:05;2.92;;;1.98;;
23617;SDS011;18207;32.078;34.818;2023-07-13T04:06:35;3.15;;;1.90;;
23617;SDS011;18207;32.078;34.818;2023-07-13T04:09:08;2.13;;;1.95;;
23617;SDS011;18207;32.078;34.818;2023-07-13T04:11:38;1.92;;;1.83;;
23617;SDS011;18207;32.078;34.818;2023-07-13T04:14:08;1.80;;;1.65;;
23617;SDS011;18207;32.078;34.818;2023-07-13T04:16:39;2.13;;;1.80;;
23617;SDS011;18207;32.078;34.818;2023-07-13T04:19:09;2.17;;;1.75;;
23617;SDS011;18207;32.078;34.818;2023-07-13T04:21:39;2.30;;;1.70;;
23617;SDS011;18207;32.078;34.818;2023-07-13T04:24:11;1.67;;;1.58;;
23617;SDS011;18207;32.078;34.818;2023-07-13T04:26:41;1.80;;;1.60;;
23617;SDS011;18207;32.078;34.818;2023-07-13T04:29:11;2.28;;;1.38;;
23617;SDS011;18207;32.078;34.818;2023-07-13T04:31:42;1.65;;;1.40;;
23617;SDS011;18207;32.078;34.818;2023-07-13T04:34:12;1.33;;;1.23;;
23617;SDS011;18207;32.078;34.818;2023-07-13T04:36:42;1.38;;;1.27;;
23617;SDS011;18207;32.078;34.818;2023-07-13T04:39:14;1.50;;;1.40;;
23617;SDS011;18207;32.078;34.818;2023-07-13T04:41:45;1.60;;;1.50;;
23617;SDS011;18207;32.078;34.818;2023-07-13T04:44:15;1.50;;;1.40;;
23617;SDS011;18207;32.078;34.818;2023-07-13T04:46:45;1.85;;;1.40;;
23617;SDS011;18207;32.078;34.818;2023-07-13T04:49:16;1.40;;;1.30;;
23617;SDS011;18207;32.078;34.818;2023-07-13T04:51:46;1.20;;;1.20;;
23617;SDS011;18207;32.078;34.818;2023-07-13T04:54:18;1.38;;;1.27;;
23617;SDS011;18207;32.078;34.818;2023-07-13T04:56:49;1.48;;;1.38;;
23617;SDS011;18207;32.078;34.818;2023-07-13T04:59:19;1.40;;;1.30;;
23617;SDS011;18207;32.078;34.818;2023-07-13T05:01:49;1.13;;;1.05;;
23617;SDS011;18207;32.078;34.818;2023-07-13T05:04:19;1.58;;;1.40;;
23617;SDS011;18207;32.078;34.818;2023-07-13T05:06:49;1.13;;;1.13;;
23617;SDS011;18207;32.078;34.818;2023-07-13T05:09:22;1.60;;;1.10;;
23617;SDS011;18207;32.078;34.818;2023-07-13T05:11:52;1.27;;;1.15;;
23617;SDS011;18207;32.078;34.818;2023-07-13T05:14:22;1.45;;;1.30;;
23617;SDS011;18207;32.078;34.818;2023-07-13T05:16:52;1.10;;;1.10;;
23617;SDS011;18207;32.078;34.818;2023-07-13T05:19:24;1.27;;;1.17;;
23617;SDS011;18207;32.078;34.818;2023-07-13T05:21:53;1.42;;;1.00;;
23617;SDS011;18207;32.078;34.818;2023-07-13T05:24:26;1.38;;;1.27;;
23617;SDS011;18207;32.078;34.818;2023-07-13T05:26:56;0.98;;;0.98;;
23617;SDS011;18207;32.078;34.818;2023-07-13T05:29:25;1.40;;;1.30;;
23617;SDS011;18207;32.078;34.818;2023-07-13T05:31:56;1.23;;;1.08;;
23617;SDS011;18207;32.078;34.818;2023-07-13T05:34:26;1.33;;;1.27;;
23617;SDS011;18207;32.078;34.818;2023-07-13T05:36:57;0.95;;;0.95;;
23617;SDS011;18207;32.078;34.818;2023-07-13T05:39:29;1.00;;;1.00;;
23617;SDS011;18207;32.078;34.818;2023-07-13T05:42:01;1.10;;;1.00;;
23617;SDS011;18207;32.078;34.818;2023-07-13T05:44:32;1.65;;;0.77;;
23617;SDS011;18207;32.078;34.818;2023-07-13T05:47:03;1.00;;;1.00;;
23617;SDS011;18207;32.078;34.818;2023-07-13T05:49:34;1.67;;;0.88;;
23617;SDS011;18207;32.078;34.818;2023-07-13T05:52:05;1.60;;;0.88;;
23617;SDS011;18207;32.078;34.818;2023-07-13T05:54:37;0.60;;;0.60;;
23617;SDS011;18207;32.078;34.818;2023-07-13T05:57:07;0.90;;;0.90;;
23617;SDS011;18207;32.078;34.818;2023-07-13T05:59:38;0.70;;;0.70;;
23617;SDS011;18207;32.078;34.818;2023-07-13T06:02:08;0.70;;;0.70;;
23617;SDS011;18207;32.078;34.818;2023-07-13T06:04:39;1.13;;;0.93;;
23617;SDS011;18207;32.078;34.818;2023-07-13T06:07:09;0.80;;;0.80;;
23617;SDS011;18207;32.078;34.818;2023-07-13T06:09:41;0.70;;;0.70;;
23617;SDS011;18207;32.078;34.818;2023-07-13T06:12:11;1.05;;;0.98;;
23617;SDS011;18207;32.078;34.818;2023-07-13T06:14:41;1.08;;;1.00;;
23617;SDS011;18207;32.078;34.818;2023-07-13T06:17:11;1.15;;;1.00;;
23617;SDS011;18207;32.078;34.818;2023-07-13T06:19:41;1.33;;;1.20;;
23617;SDS011;18207;32.078;34.818;2023-07-13T06:22:12;1.33;;;1.00;;
23617;SDS011;18207;32.078;34.818;2023-07-13T06:24:44;1.05;;;0.95;;
23617;SDS011;18207;32.078;34.818;2023-07-13T06:27:14;0.80;;;0.75;;
23617;SDS011;18207;32.078;34.818;2023-07-13T06:29:45;1.05;;;1.05;;
23617;SDS011;18207;32.078;34.818;2023-07-13T06:32:15;1.25;;;1.15;;
23617;SDS011;18207;32.078;34.818;2023-07-13T06:34:46;1.13;;;1.13;;
23617;SDS011;18207;32.078;34.818;2023-07-13T06:37:16;1.10;;;1.10;;
23617;SDS011;18207;32.078;34.818;2023-07-13T06:39:47;0.93;;;0.90;;
23617;SDS011;18207;32.078;34.818;2023-07-13T06:42:18;0.82;;;0.80;;
23617;SDS011;18207;32.078;34.818;2023-07-13T06:44:48;0.93;;;0.93;;
23617;SDS011;18207;32.078;34.818;2023-07-13T06:47:18;1.00;;;1.00;;
23617;SDS011;18207;32.078;34.818;2023-07-13T06:49:48;1.10;;;1.00;;
23617;SDS011;18207;32.078;34.818;2023-07-13T06:52:18;0.90;;;0.90;;
23617;SDS011;18207;32.078;34.818;2023-07-13T06:54:51;1.35;;;1.30;;
23617;SDS011;18207;32.078;34.818;2023-07-13T06:57:21;2.03;;;1.92;;
23617;SDS011;18207;32.078;34.818;2023-07-13T06:59:51;2.50;;;2.30;;
23617;SDS011;18207;32.078;34.818;2023-07-13T07:02:22;2.53;;;2.33;;
23617;SDS011;18207;32.078;34.818;2023-07-13T07:04:52;2.40;;;2.30;;
23617;SDS011;18207;32.078;34.818;2023-07-13T07:07:23;2.63;;;2.42;;
23617;SDS011;18207;32.078;34.818;2023-07-13T07:09:56;3.67;;;3.25;;
23617;SDS011;18207;32.078;34.818;2023-07-13T07:12:26;2.95;;;2.75;;
23617;SDS011;18207;32.078;34.818;2023-07-13T07:14:57;2.38;;;2.17;;
23617;SDS011;18207;32.078;34.818;2023-07-13T07:17:27;2.08;;;1.98;;
23617;SDS011;18207;32.078;34.818;2023-07-13T07:19:58;2.35;;;2.17;;
23617;SDS011;18207;32.078;34.818;2023-07-13T07:22:29;2.20;;;2.00;;
23617;SDS011;18207;32.078;34.818;2023-07-13T07:25:01;2.40;;;2.20;;
23617;SDS011;18207;32.078;34.818;2023-07-13T07:27:32;1.67;;;1.55;;
23617;SDS011;18207;32.078;34.818;2023-07-13T07:30:05;1.80;;;1.70;;
23617;SDS011;18207;32.078;34.818;2023-07-13T07:32:45;1.38;;;1.33;;
23617;SDS011;18207;32.078;34.818;2023-07-13T07:35:17;2.95;;;1.25;;
23617;SDS011;18207;32.078;34.818;2023-07-13T07:37:48;2.00;;;1.27;;
23617;SDS011;18207;32.078;34.818;2023-07-13T07:40:19;1.95;;;1.63;;
23617;SDS011;18207;32.078;34.818;2023-07-13T07:42:53;1.50;;;1.40;;
23617;SDS011;18207;32.078;34.818;2023-07-13T07:45:23;0.98;;;0.98;;
23617;SDS011;18207;32.078;34.818;2023-07-13T07:47:55;2.05;;;1.10;;
23617;SDS011;18207;32.078;34.818;2023-07-13T07:50:28;0.90;;;0.90;;
23617;SDS011;18207;32.078;34.818;2023-07-13T07:52:58;1.20;;;1.20;;
23617;SDS011;18207;32.078;34.818;2023-07-13T07:55:32;1.23;;;1.13;;
23617;SDS011;18207;32.078;34.818;2023-07-13T07:58:06;1.05;;;1.02;;
23617;SDS011;18207;32.078;34.818;2023-07-13T08:01:01;1.05;;;1.05;;
23617;SDS011;18207;32.078;34.818;2023-07-13T08:03:35;1.00;;;1.00;;
23617;SDS011;18207;32.078;34.818;2023-07-13T08:06:09;0.90;;;0.90;;
23617;SDS011;18207;32.078;34.818;2023-07-13T08:08:58;0.88;;;0.88;;
23617;SDS011;18207;32.078;34.818;2023-07-13T08:11:32;0.90;;;0.90;;
23617;SDS011;18207;32.078;34.818;2023-07-13T08:14:06;1.00;;;1.00;;
23617;SDS011;18207;32.078;34.818;2023-07-13T08:16:36;1.20;;;1.10;;
23617;SDS011;18207;32.078;34.818;2023-07-13T08:19:07;1.00;;;1.00;;
23617;SDS011;18207;32.078;34.818;2023-07-13T08:21:38;0.90;;;0.90;;
23617;SDS011;18207;32.078;34.818;2023-07-13T08:24:09;0.73;;;0.73;;
23617;SDS011;18207;32.078;34.818;2023-07-13T08:26:41;0.82;;;0.82;;
23617;SDS011;18207;32.078;34.818;2023-07-13T08:29:12;0.80;;;0.80;;
23617;SDS011;18207;32.078;34.818;2023-07-13T08:31:42;1.00;;;0.90;;
23617;SDS011;18207;32.078;34.818;2023-07-13T08:34:12;0.85;;;0.85;;
23617;SDS011;18207;32.078;34.818;2023-07-13T08:36:43;0.65;;;0.65;;
23617;SDS011;18207;32.078;34.818;2023-07-13T08:39:13;1.00;;;0.90;;
23617;SDS011;18207;32.078;34.818;2023-07-13T08:41:46;0.90;;;0.90;;
23617;SDS011;18207;32.078;34.818;2023-07-13T08:44:36;0.80;;;0.80;;
23617;SDS011;18207;32.078;34.818;2023-07-13T08:47:20;0.80;;;0.80;;
23617;SDS011;18207;32.078;34.818;2023-07-13T08:49:53;0.90;;;0.90;;
23617;SDS011;18207;32.078;34.818;2023-07-13T08:52:26;0.73;;;0.73;;
23617;SDS011;18207;32.078;34.818;2023-07-13T08:55:08;0.68;;;0.68;;
23617;SDS011;18207;32.078;34.818;2023-07-13T08:57:48;0.88;;;0.88;;
23617;SDS011;18207;32.078;34.818;2023-07-13T09:00:32;0.80;;;0.80;;
23617;SDS011;18207;32.078;34.818;2023-07-13T09:03:15;0.80;;;0.80;;
23617;SDS011;18207;32.078;34.818;2023-07-13T09:05:53;0.90;;;0.90;;
23617;SDS011;18207;32.078;34.818;2023-07-13T09:11:26;0.80;;;0.80;;
23617;SDS011;18207;32.078;34.818;2023-07-13T09:17:16;0.30;;;0.30;;
23617;SDS011;18207;32.078;34.818;2023-07-13T09:19:53;0.60;;;0.60;;
23617;SDS011;18207;32.078;34.818;2023-07-13T09:22:31;0.60;;;0.60;;
23617;SDS011;18207;32.078;34.818;2023-07-13T09:25:11;0.60;;;0.60;;
23617;SDS011;18207;32.078;34.818;2023-07-13T09:27:56;0.70;;;0.70;;
23617;SDS011;18207;32.078;34.818;2023-07-13T09:30:36;2.13;;;0.80;;
23617;SDS011;18207;32.078;34.818;2023-07-13T09:33:16;0.80;;;0.80;;
23617;SDS011;18207;32.078;34.818;2023-07-13T09:35:46;0.63;;;0.63;;
23617;SDS011;18207;32.078;34.818;2023-07-13T09:38:17;1.20;;;0.90;;
23617;SDS011;18207;32.078;34.818;2023-07-13T09:40:56;0.70;;;0.70;;
23617;SDS011;18207;32.078;34.818;2023-07-13T09:43:44;0.50;;;0.50;;
23617;SDS011;18207;32.078;34.818;2023-07-13T09:46:37;0.60;;;0.60;;
23617;SDS011;18207;32.078;34.818;2023-07-13T09:49:13;0.75;;;0.70;;
23617;SDS011;18207;32.078;34.818;2023-07-13T09:51:44;0.70;;;0.70;;
23617;SDS011;18207;32.078;34.818;2023-07-13T09:54:18;0.98;;;0.93;;
23617;SDS011;18207;32.078;34.818;2023-07-13T09:56:53;1.10;;;0.70;;
23617;SDS011;18207;32.078;34.818;2023-07-13T09:59:27;0.50;;;0.50;;
23617;SDS011;18207;32.078;34.818;2023-07-13T10:02:02;0.68;;;0.68;;
23617;SDS011;18207;32.078;34.818;2023-07-13T10:04:57;0.60;;;0.60;;
23617;SDS011;18207;32.078;34.818;2023-07-13T10:07:38;0.70;;;0.70;;
23617;SDS011;18207;32.078;34.818;2023-07-13T10:10:13;0.60;;;0.60;;
23617;SDS011;18207;32.078;34.818;2023-07-13T10:12:47;0.70;;;0.70;;
23617;SDS011;18207;32.078;34.818;2023-07-13T10:15:19;0.85;;;0.60;;
23617;SDS011;18207;32.078;34.818;2023-07-13T10:17:55;0.82;;;0.32;;
23617;SDS011;18207;32.078;34.818;2023-07-13T10:20:27;0.80;;;0.80;;
23617;SDS011;18207;32.078;34.818;2023-07-13T10:22:59;0.40;;;0.40;;
23617;SDS011;18207;32.078;34.818;2023-07-13T10:25:34;0.60;;;0.50;;
23617;SDS011;18207;32.078;34.818;2023-07-13T10:28:11;0.50;;;0.50;;
23617;SDS011;18207;32.078;34.818;2023-07-13T10:30:53;0.70;;;0.63;;
23617;SDS011;18207;32.078;34.818;2023-07-13T10:33:31;0.60;;;0.60;;
23617;SDS011;18207;32.078;34.818;2023-07-13T10:36:03;0.70;;;0.70;;
23617;SDS011;18207;32.078;34.818;2023-07-13T10:38:46;0.50;;;0.50;;
23617;SDS011;18207;32.078;34.818;2023-07-13T10:41:20;0.50;;;0.50;;
23617;SDS011;18207;32.078;34.818;2023-07-13T10:43:55;0.55;;;0.55;;
23617;SDS011;18207;32.078;34.818;2023-07-13T10:46:27;0.70;;;0.70;;
23617;SDS011;18207;32.078;34.818;2023-07-13T10:49:01;0.70;;;0.52;;
23617;SDS011;18207;32.078;34.818;2023-07-13T10:51:36;0.82;;;0.82;;
23617;SDS011;18207;32.078;34.818;2023-07-13T10:54:12;0.57;;;0.57;;
23617;SDS011;18207;32.078;34.818;2023-07-13T10:56:50;0.50;;;0.50;;
23617;SDS011;18207;32.078;34.818;2023-07-13T10:59:35;0.43;;;0.43;;
23617;SDS011;18207;32.078;34.818;2023-07-13T11:02:10;0.57;;;0.57;;
23617;SDS011;18207;32.078;34.818;2023-07-13T11:04:52;0.80;;;0.80;;
23617;SDS011;18207;32.078;34.818;2023-07-13T11:07:26;0.50;;;0.50;;
23617;SDS011;18207;32.078;34.818;2023-07-13T11:10:00;0.50;;;0.50;;
23617;SDS011;18207;32.078;34.818;2023-07-13T11:12:55;0.50;;;0.50;;
23617;SDS011;18207;32.078;34.818;2023-07-13T11:15:31;0.68;;;0.50;;
23617;SDS011;18207;32.078;34.818;2023-07-13T11:18:19;0.90;;;0.57;;
23617;SDS011;18207;32.078;34.818;2023-07-13T11:20:55;0.47;;;0.47;;
23617;SDS011;18207;32.078;34.818;2023-07-13T11:24:01;0.52;;;0.52;;
23617;SDS011;18207;32.078;34.818;2023-07-13T11:26:44;0.50;;;0.50;;
23617;SDS011;18207;32.078;34.818;2023-07-13T11:29:24;0.50;;;0.50;;
23617;SDS011;18207;32.078;34.818;2023-07-13T11:34:58;0.57;;;0.57;;
23617;SDS011;18207;32.078;34.818;2023-07-13T11:37:31;1.48;;;0.57;;
23617;SDS011;18207;32.078;34.818;2023-07-13T11:40:02;0.50;;;0.50;;
23617;SDS011;18207;32.078;34.818;2023-07-13T11:42:36;0.57;;;0.57;;
23617;SDS011;18207;32.078;34.818;2023-07-13T11:45:14;1.02;;;0.60;;
23617;SDS011;18207;32.078;34.818;2023-07-13T11:48:17;0.55;;;0.55;;
23617;SDS011;18207;32.078;34.818;2023-07-13T11:50:56;0.75;;;0.50;;
23617;SDS011;18207;32.078;34.818;2023-07-13T11:53:34;0.57;;;0.57;;
23617;SDS011;18207;32.078;34.818;2023-07-13T11:56:10;0.45;;;0.45;;
23617;SDS011;18207;32.078;34.818;2023-07-13T11:58:41;0.80;;;0.80;;
23617;SDS011;18207;32.078;34.818;2023-07-13T12:01:16;1.60;;;0.70;;
23617;SDS011;18207;32.078;34.818;2023-07-13T12:03:50;0.60;;;0.60;;
23617;SDS011;18207;32.078;34.818;2023-07-13T12:06:27;0.50;;;0.50;;
23617;SDS011;18207;32.078;34.818;2023-07-13T12:09:02;0.40;;;0.40;;
23617;SDS011;18207;32.078;34.818;2023-07-13T12:11:43;0.60;;;0.60;;
23617;SDS011;18207;32.078;34.818;2023-07-13T12:14:14;0.60;;;0.60;;
23617;SDS011;18207;32.078;34.818;2023-07-13T12:16:46;0.45;;;0.45;;
23617;SDS011;18207;32.078;34.818;2023-07-13T12:19:17;0.60;;;0.60;;
23617;SDS011;18207;32.078;34.818;2023-07-13T12:21:50;0.60;;;0.60;;
23617;SDS011;18207;32.078;34.818;2023-07-13T12:24:27;0.57;;;0.57;;
23617;SDS011;18207;32.078;34.818;2023-07-13T12:26:59;2.05;;;0.52;;
23617;SDS011;18207;32.078;34.818;2023-07-13T12:29:32;0.60;;;0.60;;
23617;SDS011;18207;32.078;34.818;2023-07-13T12:32:07;0.52;;;0.52;;
23617;SDS011;18207;32.078;34.818;2023-07-13T12:34:50;1.77;;;0.57;;
23617;SDS011;18207;32.078;34.818;2023-07-13T12:37:23;0.40;;;0.40;;
23617;SDS011;18207;32.078;34.818;2023-07-13T12:39:56;0.40;;;0.40;;
23617;SDS011;18207;32.078;34.818;2023-07-13T12:42:27;0.40;;;0.40;;
23617;SDS011;18207;32.078;34.818;2023-07-13T12:45:01;0.60;;;0.60;;
23617;SDS011;18207;32.078;34.818;2023-07-13T12:47:47;0.40;;;0.40;;
23617;SDS011;18207;32.078;34.818;2023-07-13T12:50:23;0.50;;;0.50;;
23617;SDS011;18207;32.078;34.818;2023-07-13T12:53:01;0.60;;;0.60;;
23617;SDS011;18207;32.078;34.818;2023-07-13T12:55:42;0.43;;;0.43;;
23617;SDS011;18207;32.078;34.818;2023-07-13T12:58:21;0.60;;;0.60;;
23617;SDS011;18207;32.078;34.818;2023-07-13T13:00:56;0.90;;;0.55;;
23617;SDS011;18207;32.078;34.818;2023-07-13T13:03:31;0.50;;;0.50;;
23617;SDS011;18207;32.078;34.818;2023-07-13T13:06:04;0.55;;;0.55;;
23617;SDS011;18207;32.078;34.818;2023-07-13T13:08:48;0.50;;;0.50;;
23617;SDS011;18207;32.078;34.818;2023-07-13T13:11:23;0.55;;;0.55;;
23617;SDS011;18207;32.078;34.818;2023-07-13T13:13:56;0.50;;;0.50;;
23617;SDS011;18207;32.078;34.818;2023-07-13T13:16:29;0.30;;;0.30;;
23617;SDS011;18207;32.078;34.818;2023-07-13T13:19:12;1.23;;;0.55;;
23617;SDS011;18207;32.078;34.818;2023-07-13T13:21:45;0.80;;;0.60;;
23617;SDS011;18207;32.078;34.818;2023-07-13T13:24:17;0.60;;;0.55;;
23617;SDS011;18207;32.078;34.818;2023-07-13T13:26:52;0.50;;;0.50;;
23617;SDS011;18207;32.078;34.818;2023-07-13T13:29:24;0.45;;;0.43;;
23617;SDS011;18207;32.078;34.818;2023-07-13T13:31:55;2.17;;;0.60;;
23617;SDS011;18207;32.078;34.818;2023-07-13T13:34:26;0.52;;;0.52;;
23617;SDS011;18207;32.078;34.818;2023-07-13T13:36:56;0.88;;;0.60;;
23617;SDS011;18207;32.078;34.818;2023-07-13T13:39:29;0.82;;;0.60;;
23617;SDS011;18207;32.078;34.818;2023-07-13T13:42:08;0.57;;;0.57;;
23617;SDS011;18207;32.078;34.818;2023-07-13T13:44:39;0.50;;;0.50;;
23617;SDS011;18207;32.078;34.818;2023-07-13T13:47:17;0.55;;;0.55;;
23617;SDS011;18207;32.078;34.818;2023-07-13T13:50:12;0.40;;;0.40;;
23617;SDS011;18207;32.078;34.818;2023-07-13T13:52:45;0.60;;;0.60;;
23617;SDS011;18207;32.078;34.818;2023-07-13T13:55:16;0.45;;;0.45;;
23617;SDS011;18207;32.078;34.818;2023-07-13T13:57:52;0.50;;;0.50;;
23617;SDS011;18207;32.078;34.818;2023-07-13T14:00:23;0.60;;;0.60;;
23617;SDS011;18207;32.078;34.818;2023-07-13T14:02:54;0.70;;;0.50;;
23617;SDS011;18207;32.078;34.818;2023-07-13T14:05:25;0.50;;;0.50;;
23617;SDS011;18207;32.078;34.818;2023-07-13T14:07:56;0.60;;;0.60;;
23617;SDS011;18207;32.078;34.818;2023-07-13T14:10:26;0.60;;;0.60;;
23617;SDS011;18207;32.078;34.818;2023-07-13T14:12:59;0.60;;;0.60;;
23617;SDS011;18207;32.078;34.818;2023-07-13T14:15:32;0.50;;;0.50;;
23617;SDS011;18207;32.078;34.818;2023-07-13T14:18:02;0.57;;;0.57;;
23617;SDS011;18207;32.078;34.818;2023-07-13T14:20:33;0.50;;;0.50;;
23617;SDS011;18207;32.078;34.818;2023-07-13T14:23:03;0.40;;;0.40;;
23617;SDS011;18207;32.078;34.818;2023-07-13T14:25:33;0.40;;;0.40;;
23617;SDS011;18207;32.078;34.818;2023-07-13T14:28:14;0.50;;;0.43;;
23617;SDS011;18207;32.078;34.818;2023-07-13T14:30:51;0.85;;;0.45;;
23617;SDS011;18207;32.078;34.818;2023-07-13T14:33:22;0.73;;;0.52;;
23617;SDS011;18207;32.078;34.818;2023-07-13T14:35:53;0.57;;;0.57;;
23617;SDS011;18207;32.078;34.818;2023-07-13T14:38:23;0.52;;;0.52;;
23617;SDS011;18207;32.078;34.818;2023-07-13T14:40:54;0.32;;;0.32;;
23617;SDS011;18207;32.078;34.818;2023-07-13T14:43:27;0.30;;;0.30;;
23617;SDS011;18207;32.078;34.818;2023-07-13T14:45:57;0.55;;;0.50;;
23617;SDS011;18207;32.078;34.818;2023-07-13T14:48:27;0.40;;;0.40;;
23617;SDS011;18207;32.078;34.818;2023-07-13T14:50:58;0.50;;;0.50;;
23617;SDS011;18207;32.078;34.818;2023-07-13T14:53:29;0.50;;;0.50;;
23617;SDS011;18207;32.078;34.818;2023-07-13T14:55:59;0.60;;;0.57;;
23617;SDS011;18207;32.078;34.818;2023-07-13T14:58:30;0.50;;;0.50;;
23617;SDS011;18207;32.078;34.818;2023-07-13T15:01:01;0.45;;;0.45;;
23617;SDS011;18207;32.078;34.818;2023-07-13T15:03:31;0.75;;;0.60;;
23617;SDS011;18207;32.078;34.818;2023-07-13T15:06:07;0.70;;;0.70;;
23617;SDS011;18207;32.078;34.818;2023-07-13T15:08:40;0.47;;;0.43;;
23617;SDS011;18207;32.078;34.818;2023-07-13T15:11:11;0.50;;;0.50;;
23617;SDS011;18207;32.078;34.818;2023-07-13T15:13:43;0.65;;;0.57;;
23617;SDS011;18207;32.078;34.818;2023-07-13T15:16:15;0.50;;;0.50;;
23617;SDS011;18207;32.078;34.818;2023-07-13T15:18:50;0.40;;;0.40;;
23617;SDS011;18207;32.078;34.818;2023-07-13T15:21:22;0.32;;;0.32;;